Ana Sayfa
METAR-TAF:

METAR-TAF

Havaalanları :

Fort Worth, Teksas, Amerika Birleşik Devletleri

Enlem: 32-49-31N, Boylam: 097-21-51W, yükseklik: 216 m

Güncel hava durumu gözlemi

Rapor saat 15:53 UTC de 28 dakika önce yapıldı.
Rüzgar güney/güneybatıdan 8 kt
Sıcaklık 32°C
Nem 63%
Basınç 1014 hPa
Görüş mesafesi: 16.1 km
2500 ft yükseklikte parçalı çok bulutlu

METAR: KFTW 251553Z 21008KT 10SM BKN025 32/24 A2993 RMK AO2 SLP123 T03170244

Saat: 11:21 (16:21 UTC)

Tahmin

Rapor saat 14:58 UTC de 1 saat ve 23 dakika önce yapıldı.
Ayın 25'si saat 15 UTC'den ayın 26'si saat 12 UTC'ye kadar geçerli Tahmin
Rüzgar güneydan 12 kt
Görüş mesafesi: 10 km
2500 ft yükseklikte parçalı bulutlu
25000 ft yükseklikte parçalı bulutlu
Geçici
ayın 25'si saat 15 UTC'den ayın 25'si saat 16 UTC'ye kadar
1500 ft yükseklikte parçalı çok bulutlu

TAF: KFTW 251458Z 2515/2612 18012KT P6SM SCT025 SCT250 TEMPO 2515/2516 BKN015

4.000'den fazla havaalanı için hava durumu gözlemleri ve tahminleri (METAR ve TAF raporları).

Kullanılabilir istasyonlar harita üzerinde sarı ve kırmızı noktalarla gösterilir.

İstasyonun adını görmek için fareyi noktanın üzerinde gezdirin.

Sonrasında hava gözlem ve tahminlerini görmek için tıklayın.

Haritayı değiştirmek için: yaklaştırmak için siyah artı işaretli yeşil düğmeye ve uzaklaştırmak için de eksi işaretli düğmeye hızla tıklayın; bitişik haritalar için yeşil okları kullanın.


METAR-TAF: